Time;durP1;ratioP1;P1;durP2;ratioP2;P2;SDS_P1;SDS_P2;PMS_P1;PMS_P2;Temp;Humidity;BMP_temperature;BMP_pressure;BME280_temperature;BME280_humidity;BME280_pressure;Samples;Min_cycle;Max_cycle;Signal;HPM_P1;HPM_P2
2022/03/28 00:02:06;;;;;;;2.53;1.80;;;;;;;-148.56;100.00;61375.16;4950668;28;20034;-32
2022/03/28 00:04:31;;;;;;;1.88;1.42;;;;;;;-148.56;100.00;61375.16;4955786;28;20030;-31
2022/03/28 00:06:56;;;;;;;3.33;1.67;;;;;;;-148.56;100.00;61375.16;4949493;28;20912;-30
2022/03/28 00:09:22;;;;;;;2.92;1.73;;;;;;;-148.56;100.00;61375.16;4954995;28;20026;-32
2022/03/28 00:11:47;;;;;;;2.95;1.92;;;;;;;-148.56;100.00;61375.16;4954116;28;20061;-29
2022/03/28 00:14:13;;;;;;;2.30;1.77;;;;;;;-148.56;100.00;61375.16;4953330;28;20604;-28
2022/03/28 00:16:38;;;;;;;3.47;1.80;;;;;;;-148.56;100.00;61375.16;4956609;28;20061;-31
2022/03/28 00:19:03;;;;;;;2.35;1.52;;;;;;;-148.56;100.00;61375.16;4955814;28;20049;-31
2022/03/28 00:21:29;;;;;;;4.43;1.75;;;;;;;-148.56;100.00;61375.16;4954846;28;20113;-31
2022/03/28 00:23:54;;;;;;;2.67;1.75;;;;;;;-148.56;100.00;61375.16;4955103;28;20601;-30
2022/03/28 00:26:20;;;;;;;2.72;1.67;;;;;;;-148.56;100.00;61375.16;4957525;28;20054;-32
2022/03/28 00:28:45;;;;;;;3.35;1.90;;;;;;;-148.56;100.00;61375.16;4955088;28;20116;-33
2022/03/28 00:31:11;;;;;;;5.25;1.95;;;;;;;-148.56;100.00;61375.16;4958291;28;20979;-35
2022/03/28 00:33:36;;;;;;;3.97;1.90;;;;;;;-148.56;100.00;61375.16;4954679;28;20030;-31
2022/03/28 00:36:02;;;;;;;3.28;1.60;;;;;;;-148.56;100.00;61375.16;4958349;28;20088;-28
2022/03/28 00:38:28;;;;;;;2.92;1.73;;;;;;;-148.56;100.00;61375.16;4959535;28;20034;-30
2022/03/28 00:40:53;;;;;;;4.13;1.60;;;;;;;-148.56;100.00;61375.16;4960423;28;20076;-31
2022/03/28 00:43:18;;;;;;;2.53;1.60;;;;;;;-148.56;100.00;61375.16;4961340;28;20038;-30
2022/03/28 00:45:44;;;;;;;2.88;1.80;;;;;;;-148.56;100.00;61375.16;4960275;28;20026;-33
2022/03/28 00:48:10;;;;;;;3.10;1.80;;;;;;;-148.56;100.00;61375.16;4957677;28;20343;-32
2022/03/28 00:50:36;;;;;;;2.65;1.58;;;;;;;-148.56;100.00;61375.16;4959127;28;20067;-32
2022/03/28 00:53:02;;;;;;;1.88;1.50;;;;;;;-148.56;100.00;61375.16;4962544;28;20045;-32
2022/03/28 00:55:28;;;;;;;2.83;1.77;;;;;;;-148.56;100.00;61375.16;4945180;28;20054;-32
2022/03/28 00:57:53;;;;;;;3.25;1.65;;;;;;;-148.56;100.00;61375.16;4957433;28;20144;-35
2022/03/28 01:00:18;;;;;;;2.25;1.60;;;;;;;-148.56;100.00;61375.16;4958407;28;20042;-33
2022/03/28 01:02:44;;;;;;;2.63;1.80;;;;;;;-148.56;100.00;61375.16;4959248;28;20374;-34
2022/03/28 01:05:10;;;;;;;2.90;1.58;;;;;;;-148.56;100.00;61375.16;4936500;28;20428;-33
2022/03/28 01:07:38;;;;;;;2.53;1.73;;;;;;;-148.56;100.00;61375.16;4956078;28;20485;-34
2022/03/28 01:10:04;;;;;;;3.03;1.60;;;;;;;-148.56;100.00;61375.16;4954348;28;21899;-33
2022/03/28 01:12:30;;;;;;;2.38;1.77;;;;;;;-148.56;100.00;61375.16;4959593;28;20061;-35
2022/03/28 01:14:56;;;;;;;2.55;1.70;;;;;;;-148.56;100.00;61375.16;4956791;28;20097;-32
2022/03/28 01:20:06;;;;;;;2.30;1.58;;;;;;;-148.56;100.00;61375.16;4960090;28;20741;-32
2022/03/28 01:22:31;;;;;;;2.15;1.67;;;;;;;-148.56;100.00;61375.16;4953699;28;20030;-34
2022/03/28 01:24:59;;;;;;;1.85;1.45;;;;;;;-148.56;100.00;61375.16;4951927;28;20125;-35
2022/03/28 01:27:24;;;;;;;1.95;1.50;;;;;;;-148.56;100.00;61375.16;4959778;28;20062;-36
2022/03/28 01:29:50;;;;;;;1.88;1.55;;;;;;;-148.56;100.00;61375.16;4940424;28;20034;-31
2022/03/28 01:32:15;;;;;;;2.17;1.52;;;;;;;-148.56;100.00;61375.16;4935457;28;20034;-32
2022/03/28 01:34:41;;;;;;;2.45;1.70;;;;;;;-148.56;100.00;61375.16;4954905;28;20794;-32
2022/03/28 01:37:06;;;;;;;2.70;1.80;;;;;;;-148.56;100.00;61375.16;4956713;28;20045;-29
2022/03/28 01:39:32;;;;;;;1.80;1.52;;;;;;;-148.56;100.00;61375.16;4957607;28;20117;-32
2022/03/28 01:41:57;;;;;;;1.90;1.55;;;;;;;-148.56;100.00;61375.16;4959164;28;20412;-34
2022/03/28 01:44:23;;;;;;;2.53;1.40;;;;;;;-148.56;100.00;61375.16;4953888;28;20037;-32
2022/03/28 01:46:48;;;;;;;1.90;1.65;;;;;;;-148.56;100.00;61375.16;4953872;28;20030;-35
2022/03/28 01:49:14;;;;;;;1.90;1.48;;;;;;;-148.56;100.00;61375.16;4955669;28;20105;-32
2022/03/28 01:51:40;;;;;;;2.95;1.70;;;;;;;-148.56;100.00;61375.16;4952997;28;20329;-33
2022/03/28 01:54:05;;;;;;;2.72;1.48;;;;;;;-148.56;100.00;61375.16;4954633;28;20485;-32
2022/03/28 01:56:32;;;;;;;1.95;1.50;;;;;;;-148.56;100.00;61375.16;4957046;28;20026;-32
2022/03/28 01:58:57;;;;;;;2.88;1.67;;;;;;;-148.56;100.00;61375.16;4931292;28;20112;-35
2022/03/28 02:01:23;;;;;;;2.03;1.45;;;;;;;-148.56;100.00;61375.16;4956334;28;20030;-32
2022/03/28 02:03:48;;;;;;;4.57;2.78;;;;;;;-148.56;100.00;61375.16;4954092;28;20093;-33
2022/03/28 02:06:14;;;;;;;3.45;2.40;;;;;;;-148.56;100.00;61375.16;4954411;28;20072;-34
2022/03/28 02:08:39;;;;;;;4.25;2.03;;;;;;;-148.56;100.00;61375.16;4953825;28;20486;-34
2022/03/28 02:11:04;;;;;;;3.60;1.95;;;;;;;-148.56;100.00;61375.16;4948562;28;20042;-32
2022/03/28 02:13:30;;;;;;;4.80;1.88;;;;;;;-148.56;100.00;61375.16;4948846;28;20026;-35
2022/03/28 02:15:55;;;;;;;4.13;1.90;;;;;;;-148.56;100.00;61375.16;4955629;28;20896;-35
2022/03/28 02:18:20;;;;;;;2.17;1.77;;;;;;;-148.56;100.00;61375.16;4953530;28;20713;-35
2022/03/28 02:20:46;;;;;;;4.18;1.55;;;;;;;-148.56;100.00;61375.16;4951879;28;20037;-30
2022/03/28 02:23:11;;;;;;;3.03;1.85;;;;;;;-148.56;100.00;61375.16;4959404;28;20027;-33
2022/03/28 02:25:39;;;;;;;3.95;1.58;;;;;;;-148.56;100.00;61375.16;4953404;28;20541;-30
2022/03/28 02:28:04;;;;;;;3.22;1.60;;;;;;;-148.56;100.00;61375.16;4955374;28;20551;-30
2022/03/28 02:30:30;;;;;;;4.50;1.80;;;;;;;-148.56;100.00;61375.16;4953024;28;20029;-32
2022/03/28 02:32:57;;;;;;;6.72;2.55;;;;;;;-148.56;100.00;61375.16;4950212;28;20065;-30
2022/03/28 02:35:22;;;;;;;2.53;1.65;;;;;;;-148.56;100.00;61375.16;4955196;28;20092;-34
2022/03/28 02:37:48;;;;;;;4.32;1.70;;;;;;;-148.56;100.00;61375.16;4959230;28;20046;-29
2022/03/28 02:40:13;;;;;;;4.15;1.77;;;;;;;-148.56;100.00;61375.16;4948921;28;20030;-30
2022/03/28 02:42:39;;;;;;;4.35;1.55;;;;;;;-148.56;100.00;61375.16;4952539;28;20045;-34
2022/03/28 02:45:05;;;;;;;3.20;1.63;;;;;;;-148.56;100.00;61375.16;4952774;28;20038;-30
2022/03/28 02:47:30;;;;;;;3.75;1.80;;;;;;;-148.56;100.00;61375.16;4957125;28;20027;-35
2022/03/28 02:49:55;;;;;;;2.35;1.80;;;;;;;-148.56;100.00;61375.16;4951063;28;20086;-35
2022/03/28 02:52:22;;;;;;;4.53;1.90;;;;;;;-148.56;100.00;61375.16;4954428;28;20088;-30
2022/03/28 02:54:47;;;;;;;2.45;1.70;;;;;;;-148.56;100.00;61375.16;4954930;28;20027;-34
2022/03/28 02:57:13;;;;;;;4.43;1.63;;;;;;;-148.56;100.00;61375.16;4956266;28;20042;-29
2022/03/28 02:59:38;;;;;;;3.88;1.60;;;;;;;-148.56;100.00;61375.16;4947607;28;20649;-33
2022/03/28 03:02:04;;;;;;;2.70;1.77;;;;;;;-148.56;100.00;61375.16;4937305;28;20054;-29
2022/03/28 03:04:31;;;;;;;2.75;1.50;;;;;;;-148.56;100.00;61375.16;4938854;28;20038;-31
2022/03/28 03:06:56;;;;;;;2.35;1.40;;;;;;;-148.56;100.00;61375.16;4940814;28;20799;-34
2022/03/28 03:09:22;;;;;;;3.47;1.70;;;;;;;-148.56;100.00;61375.16;4940113;28;20031;-35
2022/03/28 03:11:47;;;;;;;2.67;1.67;;;;;;;-148.56;100.00;61375.16;4939074;28;20043;-35
2022/03/28 03:14:13;;;;;;;2.35;1.63;;;;;;;-148.56;100.00;61375.16;4936680;28;20030;-28
2022/03/28 03:16:40;;;;;;;2.42;1.63;;;;;;;-148.56;100.00;61375.16;4939411;28;20851;-29
2022/03/28 03:19:06;;;;;;;2.55;1.40;;;;;;;-148.56;100.00;61375.16;4953456;28;20097;-30
2022/03/28 03:21:31;;;;;;;1.75;1.40;;;;;;;-148.56;100.00;61375.16;4949801;28;20057;-34
2022/03/28 03:23:57;;;;;;;2.00;1.58;;;;;;;-148.56;100.00;61375.16;4951852;28;20039;-33
2022/03/28 03:26:22;;;;;;;1.88;1.58;;;;;;;-148.56;100.00;61375.16;4953821;28;20030;-31
2022/03/28 03:28:47;;;;;;;2.33;1.17;;;;;;;-148.56;100.00;61375.16;4957509;28;20651;-32
2022/03/28 03:31:13;;;;;;;2.38;1.67;;;;;;;-148.56;100.00;61375.16;4956353;28;20038;-31
2022/03/28 03:33:38;;;;;;;2.22;1.50;;;;;;;-148.56;100.00;61375.16;4952501;28;20049;-35
2022/03/28 03:36:04;;;;;;;2.33;1.30;;;;;;;-148.56;100.00;61375.16;4951021;28;20038;-31
2022/03/28 03:38:30;;;;;;;2.08;1.50;;;;;;;-148.56;100.00;61375.16;4950050;28;20034;-34
2022/03/28 03:40:55;;;;;;;6.05;1.60;;;;;;;-148.56;100.00;61375.16;4952207;28;20464;-34
2022/03/28 03:43:22;;;;;;;3.05;1.48;;;;;;;-148.56;100.00;61375.16;4949554;28;20109;-33
2022/03/28 03:45:48;;;;;;;3.75;1.40;;;;;;;-148.56;100.00;61375.16;4957588;28;20032;-32
2022/03/28 03:48:13;;;;;;;2.35;1.50;;;;;;;-148.56;100.00;61375.16;4955703;28;20551;-37
2022/03/28 03:50:41;;;;;;;2.95;1.38;;;;;;;-148.56;100.00;61375.16;4952646;28;20039;-31
2022/03/28 03:53:07;;;;;;;3.58;1.58;;;;;;;-148.56;100.00;61375.16;4959732;28;20557;-30
2022/03/28 03:55:32;;;;;;;2.75;1.73;;;;;;;-148.56;100.00;61375.16;4958873;28;20030;-33
2022/03/28 03:57:57;;;;;;;3.55;1.58;;;;;;;-148.56;100.00;61375.16;4953919;28;20033;-32
2022/03/28 04:00:23;;;;;;;5.03;1.60;;;;;;;-148.56;100.00;61375.16;4955400;28;20027;-30
2022/03/28 04:02:50;;;;;;;2.33;1.65;;;;;;;-148.56;100.00;61375.16;4955463;28;20026;-32
2022/03/28 04:05:16;;;;;;;3.78;1.70;;;;;;;-148.56;100.00;61375.16;4960881;28;20121;-37
2022/03/28 04:07:42;;;;;;;2.60;1.60;;;;;;;-148.56;100.00;61375.16;4954062;28;20147;-36
2022/03/28 04:10:07;;;;;;;4.68;1.70;;;;;;;-148.56;100.00;61375.16;4953829;28;20035;-28
2022/03/28 04:12:33;;;;;;;3.67;1.48;;;;;;;-148.56;100.00;61375.16;4956108;28;20037;-31
2022/03/28 04:15:00;;;;;;;4.07;1.80;;;;;;;-148.56;100.00;61375.16;4957087;28;20030;-33
2022/03/28 04:17:29;;;;;;;1.95;1.33;;;;;;;-148.56;100.00;61375.16;4936224;28;20031;-33
2022/03/28 04:19:55;;;;;;;2.08;1.33;;;;;;;-148.56;100.00;61375.16;4934060;28;20027;-34
2022/03/28 04:22:20;;;;;;;2.60;1.48;;;;;;;-148.56;100.00;61375.16;4943835;28;20034;-29
2022/03/28 04:24:46;;;;;;;2.30;1.40;;;;;;;-148.56;100.00;61375.16;4938870;28;20519;-37
2022/03/28 04:27:11;;;;;;;1.90;1.42;;;;;;;-148.56;100.00;61375.16;4955606;28;20038;-34
2022/03/28 04:29:37;;;;;;;3.67;1.60;;;;;;;-148.56;100.00;61375.16;4957348;28;20662;-34
2022/03/28 04:32:02;;;;;;;3.50;1.38;;;;;;;-148.56;100.00;61375.16;4952476;28;20035;-37
2022/03/28 04:34:28;;;;;;;3.28;1.40;;;;;;;-148.56;100.00;61375.16;4959793;28;20026;-35
2022/03/28 04:36:53;;;;;;;3.60;1.35;;;;;;;-148.56;100.00;61375.16;4951491;28;20035;-34
2022/03/28 04:39:18;;;;;;;4.22;1.40;;;;;;;-148.56;100.00;61375.16;4957003;28;20097;-34
2022/03/28 04:41:44;;;;;;;6.13;1.70;;;;;;;-148.56;100.00;61375.16;4929329;28;20077;-35
2022/03/28 04:44:10;;;;;;;5.28;1.58;;;;;;;-148.56;100.00;61375.16;4954710;28;20133;-35
2022/03/28 04:46:35;;;;;;;1.98;1.33;;;;;;;-148.56;100.00;61375.16;4954847;28;20051;-33
2022/03/28 04:49:00;;;;;;;2.88;1.20;;;;;;;-148.56;100.00;61375.16;4954074;28;20065;-31
2022/03/28 04:51:26;;;;;;;2.53;1.60;;;;;;;-148.56;100.00;61375.16;4923133;28;20034;-36
2022/03/28 04:53:51;;;;;;;2.50;1.50;;;;;;;-148.56;100.00;61375.16;4951443;28;20027;-33
2022/03/28 04:56:17;;;;;;;2.95;1.70;;;;;;;-148.56;100.00;61375.16;4959022;28;20082;-34
2022/03/28 04:58:42;;;;;;;2.90;1.67;;;;;;;-148.56;100.00;61375.16;4954968;28;20026;-29
2022/03/28 05:01:08;;;;;;;2.75;1.25;;;;;;;-148.56;100.00;61375.16;4954758;28;20496;-31
2022/03/28 05:03:34;;;;;;;3.10;1.60;;;;;;;-148.56;100.00;61375.16;4958101;28;20034;-30
2022/03/28 05:05:59;;;;;;;2.20;1.63;;;;;;;-148.56;100.00;61375.16;4955610;28;20030;-31
2022/03/28 05:08:25;;;;;;;4.65;1.60;;;;;;;-148.56;100.00;61375.16;4949937;28;20034;-31
2022/03/28 05:10:50;;;;;;;3.75;1.60;;;;;;;-148.56;100.00;61375.16;4943757;28;20621;-27
2022/03/28 05:13:15;;;;;;;2.55;1.48;;;;;;;-148.56;100.00;61375.16;4944135;28;20037;-31
2022/03/28 05:15:41;;;;;;;1.60;1.40;;;;;;;-148.56;100.00;61375.16;4955181;28;20033;-30
2022/03/28 05:18:06;;;;;;;1.88;1.25;;;;;;;-148.56;100.00;61375.16;4955869;28;20659;-30
2022/03/28 05:20:32;;;;;;;3.58;1.67;;;;;;;-148.56;100.00;61375.16;4963854;28;20472;-34
2022/03/28 05:22:57;;;;;;;1.85;1.40;;;;;;;-148.56;100.00;61375.16;4961959;28;20022;-27
2022/03/28 05:25:23;;;;;;;4.07;1.60;;;;;;;-148.56;100.00;61375.16;4963610;28;20122;-34
2022/03/28 05:27:48;;;;;;;1.80;1.30;;;;;;;-148.56;100.00;61375.16;4963072;28;20026;-32
2022/03/28 05:30:14;;;;;;;2.15;1.38;;;;;;;-148.56;100.00;61375.16;4966249;28;20057;-33
2022/03/28 05:32:40;;;;;;;2.63;1.30;;;;;;;-148.56;100.00;61375.16;4964533;28;20121;-31
2022/03/28 05:35:06;;;;;;;2.30;1.17;;;;;;;-148.56;100.00;61375.16;4964525;28;20038;-31
2022/03/28 05:37:32;;;;;;;2.25;1.30;;;;;;;-148.56;100.00;61375.16;4950397;28;20058;-33
2022/03/28 05:39:57;;;;;;;1.92;1.40;;;;;;;-148.56;100.00;61375.16;4957892;28;20531;-32
2022/03/28 05:42:22;;;;;;;2.85;1.65;;;;;;;-148.56;100.00;61375.16;4939266;28;20034;-32
2022/03/28 05:44:48;;;;;;;1.70;1.50;;;;;;;-148.56;100.00;61375.16;4953586;28;20034;-32
2022/03/28 05:47:13;;;;;;;2.53;1.25;;;;;;;-148.56;100.00;61375.16;4955126;28;20022;-32
2022/03/28 05:49:39;;;;;;;1.83;1.30;;;;;;;-148.56;100.00;61375.16;4957780;28;20081;-33
2022/03/28 05:52:04;;;;;;;2.00;1.40;;;;;;;-148.56;100.00;61375.16;4956121;28;20035;-33
2022/03/28 05:54:30;;;;;;;1.45;1.20;;;;;;;-148.56;100.00;61375.16;4951726;28;20033;-32
2022/03/28 05:56:55;;;;;;;1.45;1.30;;;;;;;-148.56;100.00;61375.16;4955221;28;20959;-29
2022/03/28 05:59:21;;;;;;;2.65;1.40;;;;;;;-148.56;100.00;61375.16;4955533;28;20042;-30
2022/03/28 06:01:46;;;;;;;2.55;1.30;;;;;;;-148.56;100.00;61375.16;4956018;28;20030;-34
2022/03/28 06:04:12;;;;;;;1.65;1.15;;;;;;;-148.56;100.00;61375.16;4952636;28;20452;-32
2022/03/28 06:06:37;;;;;;;1.92;1.08;;;;;;;-148.56;100.00;61375.16;4950147;28;20026;-34
2022/03/28 06:09:03;;;;;;;2.00;1.25;;;;;;;-148.56;100.00;61375.16;4953190;28;20034;-29
2022/03/28 06:11:28;;;;;;;3.20;1.40;;;;;;;-148.56;100.00;61375.16;4956847;28;20160;-29
2022/03/28 06:13:57;;;;;;;1.90;1.30;;;;;;;-148.56;100.00;61375.16;4949520;28;20030;-33
2022/03/28 06:16:22;;;;;;;2.03;1.17;;;;;;;-148.56;100.00;61375.16;4947991;28;20045;-35
2022/03/28 06:18:47;;;;;;;1.77;1.15;;;;;;;-148.56;100.00;61375.16;4955124;28;20034;-31
2022/03/28 06:21:13;;;;;;;3.05;1.48;;;;;;;-148.56;100.00;61375.16;4949099;28;20027;-35
2022/03/28 06:23:38;;;;;;;3.42;1.35;;;;;;;-148.56;100.00;61375.16;4958694;28;20022;-32
2022/03/28 06:26:04;;;;;;;1.42;1.17;;;;;;;-148.56;100.00;61375.16;4956050;28;20046;-33
2022/03/28 06:28:29;;;;;;;1.38;1.20;;;;;;;-148.56;100.00;61375.16;4953369;28;20068;-30
2022/03/28 06:30:55;;;;;;;1.25;0.90;;;;;;;-148.56;100.00;61375.16;4949933;28;20031;-34
2022/03/28 06:33:21;;;;;;;2.13;1.45;;;;;;;-148.56;100.00;61375.16;4952719;28;20026;-33
2022/03/28 06:35:46;;;;;;;2.35;1.25;;;;;;;-148.56;100.00;61375.16;4957891;28;20387;-30
2022/03/28 06:38:11;;;;;;;2.20;1.30;;;;;;;-148.56;100.00;61375.16;4953211;28;20049;-31
2022/03/28 06:40:37;;;;;;;1.33;1.23;;;;;;;-148.56;100.00;61375.16;4953497;28;20110;-30
2022/03/28 06:43:03;;;;;;;1.80;1.25;;;;;;;-148.56;100.00;61375.16;4958221;28;20062;-33
2022/03/28 06:45:28;;;;;;;3.08;1.25;;;;;;;-148.56;100.00;61375.16;4954716;28;20113;-30
2022/03/28 06:47:54;;;;;;;2.13;1.50;;;;;;;-148.56;100.00;61375.16;4956576;28;20246;-34
2022/03/28 06:50:21;;;;;;;6.63;2.17;;;;;;;-148.56;100.00;61375.16;4954292;28;20033;-31
2022/03/28 06:52:46;;;;;;;10.85;2.40;;;;;;;-148.56;100.00;61375.16;4957466;28;20030;-32
2022/03/28 06:55:12;;;;;;;7.50;2.30;;;;;;;-148.56;100.00;61375.16;4953121;28;20037;-31
2022/03/28 06:57:37;;;;;;;3.50;2.20;;;;;;;-148.56;100.00;61375.16;4952790;28;20038;-31
2022/03/28 07:00:04;;;;;;;17.17;6.63;;;;;;;-148.56;100.00;61375.16;4953147;28;20022;-33
2022/03/28 07:02:30;;;;;;;7.22;3.10;;;;;;;-148.56;100.00;61375.16;4951748;28;20680;-33
2022/03/28 07:04:55;;;;;;;7.18;2.88;;;;;;;-148.56;100.00;61375.16;4952695;28;20038;-34
2022/03/28 07:07:21;;;;;;;10.40;2.65;;;;;;;-148.56;100.00;61375.16;4953731;28;20038;-28
2022/03/28 07:09:46;;;;;;;10.02;2.85;;;;;;;-148.56;100.00;61375.16;4958947;28;20023;-28
2022/03/28 07:12:12;;;;;;;8.43;2.97;;;;;;;-148.56;100.00;61375.16;4952536;28;20580;-28
2022/03/28 07:14:37;;;;;;;9.65;3.40;;;;;;;-148.56;100.00;61375.16;4950457;28;20856;-30
2022/03/28 07:17:05;;;;;;;8.55;3.17;;;;;;;-148.56;100.00;61375.16;4943485;28;20042;-32
2022/03/28 07:19:31;;;;;;;9.07;3.00;;;;;;;-148.56;100.00;61375.16;4940903;28;20026;-30
2022/03/28 07:21:57;;;;;;;9.00;3.38;;;;;;;-148.56;100.00;61375.16;4942314;28;21122;-30
2022/03/28 07:24:23;;;;;;;30.92;4.20;;;;;;;-148.56;100.00;61375.16;4939048;28;20587;-32
2022/03/28 07:26:49;;;;;;;10.60;4.00;;;;;;;-148.56;100.00;61375.16;4942526;28;20068;-29
2022/03/28 07:29:17;;;;;;;10.75;3.90;;;;;;;-148.56;100.00;61375.16;4952540;28;20031;-33
2022/03/28 07:31:47;;;;;;;12.68;3.72;;;;;;;-148.56;100.00;61375.16;4946248;28;20386;-30
2022/03/28 07:34:31;;;;;;;10.00;3.75;;;;;;;-148.56;100.00;61375.16;4932782;28;20092;-33
2022/03/28 07:36:57;;;;;;;9.43;3.50;;;;;;;-148.56;100.00;61375.16;4948092;28;20018;-33
2022/03/28 07:39:22;;;;;;;10.32;3.78;;;;;;;-148.56;100.00;61375.16;4944576;28;20038;-33
2022/03/28 07:41:48;;;;;;;9.32;3.72;;;;;;;-148.56;100.00;61375.16;4938437;28;20113;-30
2022/03/28 07:44:14;;;;;;;12.93;3.55;;;;;;;-148.56;100.00;61375.16;4945314;28;20048;-27
2022/03/28 07:46:40;;;;;;;9.68;3.88;;;;;;;-148.56;100.00;61375.16;4938769;28;20046;-29
2022/03/28 07:49:09;;;;;;;10.15;3.75;;;;;;;-148.56;100.00;61375.16;4940061;28;20053;-32
2022/03/28 07:51:35;;;;;;;8.27;3.50;;;;;;;-148.56;100.00;61375.16;4946957;28;20781;-31
2022/03/28 07:54:00;;;;;;;8.82;3.10;;;;;;;-148.56;100.00;61375.16;4945533;28;20049;-30
2022/03/28 07:56:26;;;;;;;7.70;3.22;;;;;;;-148.56;100.00;61375.16;4948690;28;20541;-30
2022/03/28 07:58:51;;;;;;;10.38;3.85;;;;;;;-148.56;100.00;61375.16;4949269;28;20023;-30
2022/03/28 08:01:17;;;;;;;8.65;3.33;;;;;;;-148.56;100.00;61375.16;4948092;28;20034;-34
2022/03/28 08:03:42;;;;;;;9.05;3.20;;;;;;;-148.56;100.00;61375.16;4945366;28;20031;-31
2022/03/28 08:06:08;;;;;;;7.13;3.05;;;;;;;-148.56;100.00;61375.16;4946103;28;20052;-31
2022/03/28 08:08:35;;;;;;;8.18;2.70;;;;;;;-148.56;100.00;61375.16;4931115;28;20076;-30
2022/03/28 08:11:01;;;;;;;7.32;2.85;;;;;;;-148.56;100.00;61375.16;4941427;28;20602;-30
2022/03/28 08:13:26;;;;;;;7.22;3.13;;;;;;;-148.56;100.00;61375.16;4938986;28;20031;-32
2022/03/28 08:15:52;;;;;;;6.97;2.83;;;;;;;-148.56;100.00;61375.16;4939468;28;20022;-26
2022/03/28 08:18:17;;;;;;;54.90;9.77;;;;;;;-148.56;100.00;61375.16;4946773;28;20031;-34
2022/03/28 08:20:43;;;;;;;19.67;4.50;;;;;;;-148.56;100.00;61375.16;4948632;28;20026;-32
2022/03/28 08:23:09;;;;;;;10.75;3.75;;;;;;;-148.56;100.00;61375.16;4943403;28;20592;-28
2022/03/28 08:25:34;;;;;;;13.60;3.72;;;;;;;-148.56;100.00;61375.16;4941170;28;20596;-33
2022/03/28 08:28:00;;;;;;;28.70;12.52;;;;;;;-148.56;100.00;61375.16;4939218;28;20483;-34
2022/03/28 08:30:25;;;;;;;30.38;12.88;;;;;;;-148.56;100.00;61375.16;4937872;28;20034;-32
2022/03/28 08:32:50;;;;;;;21.08;13.07;;;;;;;-148.56;100.00;61375.16;4951327;28;20038;-31
2022/03/28 08:35:16;;;;;;;25.52;12.60;;;;;;;-148.56;100.00;61375.16;4963957;28;20027;-33
2022/03/28 08:37:42;;;;;;;23.27;11.93;;;;;;;-148.56;100.00;61375.16;4963946;28;20029;-34
2022/03/28 08:40:07;;;;;;;28.45;12.93;;;;;;;-148.56;100.00;61375.16;4955192;28;20030;-34
2022/03/28 08:42:33;;;;;;;23.98;11.55;;;;;;;-148.56;100.00;61375.16;4952634;28;20145;-32
2022/03/28 08:44:58;;;;;;;19.35;10.02;;;;;;;-148.56;100.00;61375.16;4949246;28;20027;-33
2022/03/28 08:47:24;;;;;;;21.15;9.52;;;;;;;-148.56;100.00;61375.16;4953472;28;20030;-32
2022/03/28 08:49:53;;;;;;;18.23;8.68;;;;;;;-148.56;100.00;61375.16;4951431;28;22954;-33
2022/03/28 08:52:20;;;;;;;17.67;8.32;;;;;;;-148.56;100.00;61375.16;4952464;28;20031;-33
2022/03/28 08:54:46;;;;;;;16.25;8.10;;;;;;;-148.56;100.00;61375.16;4952604;28;21894;-33
2022/03/28 08:57:12;;;;;;;16.83;7.88;;;;;;;-148.56;100.00;61375.16;4956323;28;20046;-35
2022/03/28 08:59:38;;;;;;;14.10;7.60;;;;;;;-148.56;100.00;61375.16;4954898;28;20034;-37
2022/03/28 09:02:03;;;;;;;13.60;6.82;;;;;;;-148.56;100.00;61375.16;4946700;28;20049;-35
2022/03/28 09:04:29;;;;;;;13.82;7.20;;;;;;;-148.56;100.00;61375.16;4924830;28;20030;-35
2022/03/28 09:06:54;;;;;;;13.60;7.22;;;;;;;-148.56;100.00;61375.16;4929195;28;20927;-31
2022/03/28 09:09:26;;;;;;;13.60;6.63;;;;;;;-148.56;100.00;61375.16;4915322;28;20627;-33
2022/03/28 09:11:55;;;;;;;15.45;6.38;;;;;;;-148.56;100.00;61375.16;4947846;28;20023;-34
2022/03/28 09:14:30;;;;;;;23.38;11.13;;;;;;;-148.56;100.00;61375.16;4933192;28;20030;-34
2022/03/28 09:17:04;;;;;;;23.75;10.95;;;;;;;-148.56;100.00;61375.16;4949628;28;20061;-33
2022/03/28 09:19:45;;;;;;;27.08;11.23;;;;;;;-148.56;100.00;61375.16;4947319;28;20165;-30
2022/03/28 09:22:19;;;;;;;26.52;11.57;;;;;;;-148.56;100.00;61375.16;4945380;28;20042;-36
2022/03/28 09:24:45;;;;;;;26.17;12.23;;;;;;;-148.56;100.00;61375.16;4946402;28;20037;-32
2022/03/28 09:27:20;;;;;;;25.70;9.55;;;;;;;-148.56;100.00;61375.16;4947269;28;20063;-30
2022/03/28 09:30:14;;;;;;;20.48;8.73;;;;;;;-148.56;100.00;61375.16;4940261;28;20046;-31
2022/03/28 09:32:43;;;;;;;16.40;7.63;;;;;;;-148.56;100.00;61375.16;4943995;28;20596;-32
2022/03/28 09:35:20;;;;;;;16.58;7.05;;;;;;;-148.56;100.00;61375.16;4951407;28;20472;-34
2022/03/28 09:37:48;;;;;;;12.27;6.55;;;;;;;-148.56;100.00;61375.16;4961577;28;20035;-29
2022/03/28 09:40:23;;;;;;;13.18;6.60;;;;;;;-148.56;100.00;61375.16;4958311;28;20682;-29
2022/03/28 09:42:49;;;;;;;16.40;6.00;;;;;;;-148.56;100.00;61375.16;4964617;28;20511;-33
2022/03/28 09:45:21;;;;;;;15.88;6.38;;;;;;;-148.56;100.00;61375.16;4965436;28;20026;-33
2022/03/28 09:48:11;;;;;;;15.13;5.88;;;;;;;-148.56;100.00;61375.16;4959421;28;20928;-32
2022/03/28 09:50:55;;;;;;;10.32;5.57;;;;;;;-148.56;100.00;61375.16;4960272;28;20068;-36
2022/03/28 09:53:25;;;;;;;12.75;5.63;;;;;;;-148.56;100.00;61375.16;4959201;28;20026;-30
2022/03/28 09:56:02;;;;;;;17.83;5.80;;;;;;;-148.56;100.00;61375.16;4961192;28;20034;-31
2022/03/28 09:58:47;;;;;;;12.43;5.35;;;;;;;-148.56;100.00;61375.16;4960084;28;20598;-31
2022/03/28 10:01:15;;;;;;;18.90;5.50;;;;;;;-148.56;100.00;61375.16;4959024;28;20030;-31
2022/03/28 10:03:40;;;;;;;14.02;5.22;;;;;;;-148.56;100.00;61375.16;4958645;28;20026;-31
2022/03/28 10:06:06;;;;;;;14.82;5.85;;;;;;;-148.56;100.00;61375.16;4962574;28;20038;-27
2022/03/28 10:08:33;;;;;;;16.45;5.78;;;;;;;-148.56;100.00;61375.16;4957581;28;20018;-30
2022/03/28 10:10:58;;;;;;;14.05;5.20;;;;;;;-148.56;100.00;61375.16;4952318;28;20027;-32
2022/03/28 10:13:24;;;;;;;8.77;5.22;;;;;;;-148.56;100.00;61375.16;4952255;28;20034;-29
2022/03/28 10:15:49;;;;;;;14.95;4.97;;;;;;;-148.56;100.00;61375.16;4950068;28;20226;-33
2022/03/28 10:18:15;;;;;;;12.10;5.55;;;;;;;-148.56;100.00;61375.16;4948840;28;20413;-36
2022/03/28 10:20:42;;;;;;;13.35;5.50;;;;;;;-148.56;100.00;61375.16;4951441;28;21818;-32
2022/03/28 10:23:07;;;;;;;10.70;4.90;;;;;;;-148.56;100.00;61375.16;4949945;28;20030;-35
2022/03/28 10:25:33;;;;;;;12.98;4.72;;;;;;;-148.56;100.00;61375.16;4916566;28;20861;-31
2022/03/28 10:27:58;;;;;;;11.95;4.88;;;;;;;-148.56;100.00;61375.16;4933336;28;20042;-32
2022/03/28 10:30:27;;;;;;;13.20;5.25;;;;;;;-148.56;100.00;61375.16;4917572;28;20034;-32
2022/03/28 10:33:17;;;;;;;14.02;4.90;;;;;;;-148.56;100.00;61375.16;4944139;28;20053;-34
2022/03/28 10:35:56;;;;;;;11.60;4.60;;;;;;;-148.56;100.00;61375.16;4951968;28;21114;-36
2022/03/28 10:38:21;;;;;;;12.82;4.65;;;;;;;-148.56;100.00;61375.16;4951563;28;22380;-32
2022/03/28 10:41:03;;;;;;;13.18;4.75;;;;;;;-148.56;100.00;61375.16;4950008;28;20042;-33
2022/03/28 10:43:32;;;;;;;10.55;4.63;;;;;;;-148.56;100.00;61375.16;4956148;28;20030;-32
2022/03/28 10:46:02;;;;;;;12.63;4.72;;;;;;;-148.56;100.00;61375.16;4953191;28;20065;-33
2022/03/28 10:49:01;;;;;;;11.85;4.25;;;;;;;-148.56;100.00;61375.16;4945659;28;20030;-30
2022/03/28 10:51:31;;;;;;;10.98;4.05;;;;;;;-148.56;100.00;61375.16;4940485;28;20042;-32
2022/03/28 10:54:05;;;;;;;10.65;4.15;;;;;;;-148.56;100.00;61375.16;4950238;28;20034;-34
2022/03/28 10:56:42;;;;;;;8.70;4.15;;;;;;;-148.56;100.00;61375.16;4956853;28;20512;-32
2022/03/28 10:59:19;;;;;;;9.05;4.03;;;;;;;-148.56;100.00;61375.16;4953978;28;20027;-31
2022/03/28 11:01:52;;;;;;;9.13;4.30;;;;;;;-148.56;100.00;61375.16;4949099;28;20022;-29
2022/03/28 11:04:24;;;;;;;12.85;4.25;;;;;;;-148.56;100.00;61375.16;4958621;28;20037;-31
2022/03/28 11:07:05;;;;;;;12.32;4.32;;;;;;;-148.56;100.00;61375.16;4943038;28;20217;-32
2022/03/28 11:09:47;;;;;;;10.25;3.97;;;;;;;-148.56;100.00;61375.16;4962045;28;20023;-34